<?xml version="1.0" encoding="UTF-8" standalone="no" ?>
<gpx xmlns="http://www.topografix.com/GPX/1/1" xmlns:xsi="http://www.w3.org/2001/XMLSchema-instance" xsi:schemaLocation="http://www.topografix.com/GPX/1/1 http://www.topografix.com/GPX/1/1/gpx.xsd" version="1.1" creator="VisuGPX - https://www.visugpx.com">
  <metadata>
    <name>windsurf vent marin la nautique les iles</name>
    <desc><![CDATA[windsurf vent marin la nautique les iles]]></desc>
  </metadata>
  <trk>
    <name><![CDATA[ACTIVE LOG142852]]></name>
    <trkseg>
      <trkpt lat="43.14307" lon="3.00047">
        <ele>-6.073</ele>
        <time>2010-10-29T12:28:52Z</time>
      </trkpt>
    </trkseg>
  </trk>
  <trk>
    <name><![CDATA[ACTIVE LOG142910]]></name>
    <trkseg>
      <trkpt lat="43.14306" lon="3.00047">
        <ele>-5.757</ele>
        <time>2010-10-29T12:29:09Z</time>
      </trkpt>
    </trkseg>
  </trk>
  <trk>
    <name><![CDATA[ACTIVE LOG142923]]></name>
    <trkseg>
      <trkpt lat="43.14307" lon="3.00047">
        <ele>-5.656</ele>
        <time>2010-10-29T12:29:21Z</time>
      </trkpt>
    </trkseg>
  </trk>
  <trk>
    <name><![CDATA[ACTIVE LOG142951]]></name>
    <trkseg>
      <trkpt lat="43.14306" lon="3.00047">
        <ele>-5.413</ele>
        <time>2010-10-29T12:29:49Z</time>
      </trkpt>
      <trkpt lat="43.14302" lon="3.00044">
        <ele>-3.16</ele>
        <time>2010-10-29T12:33:04Z</time>
      </trkpt>
      <trkpt lat="43.14301" lon="3.00044">
        <ele>-3.432</ele>
        <time>2010-10-29T12:33:16Z</time>
      </trkpt>
      <trkpt lat="43.14293" lon="3.00036">
        <ele>-4.698</ele>
        <time>2010-10-29T12:33:24Z</time>
      </trkpt>
      <trkpt lat="43.14291" lon="3.00036">
        <ele>-5.616</ele>
        <time>2010-10-29T12:33:48Z</time>
      </trkpt>
      <trkpt lat="43.14287" lon="3.00033">
        <ele>-5.505</ele>
        <time>2010-10-29T12:39:02Z</time>
      </trkpt>
      <trkpt lat="43.14278" lon="3.00033">
        <ele>-5.45</ele>
        <time>2010-10-29T12:39:14Z</time>
      </trkpt>
      <trkpt lat="43.14277" lon="3.00033">
        <ele>-4.264</ele>
        <time>2010-10-29T12:39:28Z</time>
      </trkpt>
      <trkpt lat="43.14269" lon="3.00032">
        <ele>-5.06</ele>
        <time>2010-10-29T12:39:52Z</time>
      </trkpt>
      <trkpt lat="43.1425" lon="3.00032">
        <ele>-7.21</ele>
        <time>2010-10-29T12:40:10Z</time>
      </trkpt>
      <trkpt lat="43.14234" lon="3.00026">
        <ele>-5.801</ele>
        <time>2010-10-29T12:40:24Z</time>
      </trkpt>
      <trkpt lat="43.14203" lon="3.0001">
        <ele>-5.721</ele>
        <time>2010-10-29T12:40:32Z</time>
      </trkpt>
      <trkpt lat="43.14177" lon="3.00008">
        <ele>-4.249</ele>
        <time>2010-10-29T12:40:41Z</time>
      </trkpt>
      <trkpt lat="43.14176" lon="3.00007">
        <ele>-4.523</ele>
        <time>2010-10-29T12:40:45Z</time>
      </trkpt>
      <trkpt lat="43.14171" lon="3.00004">
        <ele>-4.417</ele>
        <time>2010-10-29T12:40:49Z</time>
      </trkpt>
      <trkpt lat="43.14167" lon="3.00003">
        <ele>-4.773</ele>
        <time>2010-10-29T12:40:52Z</time>
      </trkpt>
      <trkpt lat="43.14144" lon="2.99992">
        <ele>-5.164</ele>
        <time>2010-10-29T12:41:00Z</time>
      </trkpt>
      <trkpt lat="43.14134" lon="2.9999">
        <ele>-6.233</ele>
        <time>2010-10-29T12:41:12Z</time>
      </trkpt>
      <trkpt lat="43.14132" lon="2.99988">
        <ele>-6.4</ele>
        <time>2010-10-29T12:41:14Z</time>
      </trkpt>
      <trkpt lat="43.14108" lon="2.99981">
        <ele>-6.284</ele>
        <time>2010-10-29T12:41:26Z</time>
      </trkpt>
      <trkpt lat="43.14078" lon="2.9997">
        <ele>-7.03</ele>
        <time>2010-10-29T12:41:37Z</time>
      </trkpt>
      <trkpt lat="43.14067" lon="2.99964">
        <ele>-7.477</ele>
        <time>2010-10-29T12:41:40Z</time>
      </trkpt>
      <trkpt lat="43.13995" lon="2.99943">
        <ele>-6.978</ele>
        <time>2010-10-29T12:41:52Z</time>
      </trkpt>
      <trkpt lat="43.13977" lon="2.99938">
        <ele>-6.783</ele>
        <time>2010-10-29T12:41:54Z</time>
      </trkpt>
      <trkpt lat="43.13928" lon="2.99938">
        <ele>-6.342</ele>
        <time>2010-10-29T12:41:59Z</time>
      </trkpt>
      <trkpt lat="43.13777" lon="2.99948">
        <ele>-5.686</ele>
        <time>2010-10-29T12:42:14Z</time>
      </trkpt>
      <trkpt lat="43.13626" lon="2.99972">
        <ele>-3.744</ele>
        <time>2010-10-29T12:42:30Z</time>
      </trkpt>
      <trkpt lat="43.1359" lon="2.9998">
        <ele>-3.888</ele>
        <time>2010-10-29T12:42:34Z</time>
      </trkpt>
      <trkpt lat="43.13509" lon="2.99989">
        <ele>-2.853</ele>
        <time>2010-10-29T12:42:43Z</time>
      </trkpt>
      <trkpt lat="43.13406" lon="2.99985">
        <ele>-1.878</ele>
        <time>2010-10-29T12:42:54Z</time>
      </trkpt>
      <trkpt lat="43.13299" lon="2.99996">
        <ele>-2.626</ele>
        <time>2010-10-29T12:43:05Z</time>
      </trkpt>
      <trkpt lat="43.13162" lon="3.00003">
        <ele>-2.369</ele>
        <time>2010-10-29T12:43:19Z</time>
      </trkpt>
      <trkpt lat="43.13061" lon="3.00017">
        <ele>-1.369</ele>
        <time>2010-10-29T12:43:30Z</time>
      </trkpt>
      <trkpt lat="43.12937" lon="3.00026">
        <ele>-1.465</ele>
        <time>2010-10-29T12:43:43Z</time>
      </trkpt>
      <trkpt lat="43.12859" lon="3.00037">
        <ele>-2.041</ele>
        <time>2010-10-29T12:43:52Z</time>
      </trkpt>
      <trkpt lat="43.12741" lon="3.00036">
        <ele>-0.21</ele>
        <time>2010-10-29T12:44:05Z</time>
      </trkpt>
      <trkpt lat="43.12733" lon="3.00037">
        <ele>-0.059</ele>
        <time>2010-10-29T12:44:06Z</time>
      </trkpt>
      <trkpt lat="43.12598" lon="3.0003">
        <ele>0.74</ele>
        <time>2010-10-29T12:44:21Z</time>
      </trkpt>
      <trkpt lat="43.1252" lon="3.00031">
        <ele>1.227</ele>
        <time>2010-10-29T12:44:29Z</time>
      </trkpt>
      <trkpt lat="43.12392" lon="3.00049">
        <ele>-1.018</ele>
        <time>2010-10-29T12:44:43Z</time>
      </trkpt>
      <trkpt lat="43.12383" lon="3.00051">
        <ele>-1.133</ele>
        <time>2010-10-29T12:44:44Z</time>
      </trkpt>
      <trkpt lat="43.12274" lon="3.00059">
        <ele>-0.642</ele>
        <time>2010-10-29T12:44:58Z</time>
      </trkpt>
      <trkpt lat="43.12199" lon="3.00059">
        <ele>-1.232</ele>
        <time>2010-10-29T12:45:07Z</time>
      </trkpt>
      <trkpt lat="43.12166" lon="3.00055">
        <ele>-1.189</ele>
        <time>2010-10-29T12:45:11Z</time>
      </trkpt>
      <trkpt lat="43.1213" lon="3.00056">
        <ele>-0.516</ele>
        <time>2010-10-29T12:45:15Z</time>
      </trkpt>
      <trkpt lat="43.121" lon="3.00053">
        <ele>-1.087</ele>
        <time>2010-10-29T12:45:18Z</time>
      </trkpt>
      <trkpt lat="43.11986" lon="3.00064">
        <ele>-0.651</ele>
        <time>2010-10-29T12:45:31Z</time>
      </trkpt>
      <trkpt lat="43.1194" lon="3.00064">
        <ele>-0.2</ele>
        <time>2010-10-29T12:45:37Z</time>
      </trkpt>
      <trkpt lat="43.1185" lon="3.00065">
        <ele>0.039</ele>
        <time>2010-10-29T12:45:48Z</time>
      </trkpt>
      <trkpt lat="43.11746" lon="3.00056">
        <ele>-1.617</ele>
        <time>2010-10-29T12:46:02Z</time>
      </trkpt>
      <trkpt lat="43.11667" lon="3.00044">
        <ele>-0.619</ele>
        <time>2010-10-29T12:46:11Z</time>
      </trkpt>
      <trkpt lat="43.11541" lon="3.00039">
        <ele>0.141</ele>
        <time>2010-10-29T12:46:25Z</time>
      </trkpt>
      <trkpt lat="43.11471" lon="3.00034">
        <ele>-0.231</ele>
        <time>2010-10-29T12:46:33Z</time>
      </trkpt>
      <trkpt lat="43.11417" lon="3.0003">
        <ele>0.657</ele>
        <time>2010-10-29T12:46:39Z</time>
      </trkpt>
      <trkpt lat="43.11372" lon="3.00031">
        <ele>0.196</ele>
        <time>2010-10-29T12:46:44Z</time>
      </trkpt>
      <trkpt lat="43.11267" lon="3.00049">
        <ele>-1.025</ele>
        <time>2010-10-29T12:46:56Z</time>
      </trkpt>
      <trkpt lat="43.1117" lon="3.00052">
        <ele>-0.659</ele>
        <time>2010-10-29T12:47:07Z</time>
      </trkpt>
      <trkpt lat="43.11022" lon="3.0006">
        <ele>-1.131</ele>
        <time>2010-10-29T12:47:23Z</time>
      </trkpt>
      <trkpt lat="43.10894" lon="3.00071">
        <ele>-0.836</ele>
        <time>2010-10-29T12:47:37Z</time>
      </trkpt>
      <trkpt lat="43.10851" lon="3.00073">
        <ele>-1.28</ele>
        <time>2010-10-29T12:47:42Z</time>
      </trkpt>
      <trkpt lat="43.10824" lon="3.00069">
        <ele>-0.596</ele>
        <time>2010-10-29T12:47:45Z</time>
      </trkpt>
      <trkpt lat="43.10683" lon="3.0008">
        <ele>-2.065</ele>
        <time>2010-10-29T12:48:01Z</time>
      </trkpt>
      <trkpt lat="43.10577" lon="3.00082">
        <ele>-2.459</ele>
        <time>2010-10-29T12:48:14Z</time>
      </trkpt>
      <trkpt lat="43.10544" lon="3.0008">
        <ele>-1.589</ele>
        <time>2010-10-29T12:48:18Z</time>
      </trkpt>
      <trkpt lat="43.1043" lon="3.00081">
        <ele>-0.787</ele>
        <time>2010-10-29T12:48:31Z</time>
      </trkpt>
      <trkpt lat="43.10394" lon="3.00082">
        <ele>-1.283</ele>
        <time>2010-10-29T12:48:35Z</time>
      </trkpt>
      <trkpt lat="43.10352" lon="3.00087">
        <ele>-1.064</ele>
        <time>2010-10-29T12:48:40Z</time>
      </trkpt>
      <trkpt lat="43.10324" lon="3.00086">
        <ele>-1.239</ele>
        <time>2010-10-29T12:48:43Z</time>
      </trkpt>
      <trkpt lat="43.10197" lon="3.00099">
        <ele>-1.462</ele>
        <time>2010-10-29T12:48:57Z</time>
      </trkpt>
      <trkpt lat="43.10083" lon="3.00122">
        <ele>-1.079</ele>
        <time>2010-10-29T12:49:10Z</time>
      </trkpt>
      <trkpt lat="43.09956" lon="3.00129">
        <ele>-1.32</ele>
        <time>2010-10-29T12:49:24Z</time>
      </trkpt>
      <trkpt lat="43.09888" lon="3.00132">
        <ele>-2.283</ele>
        <time>2010-10-29T12:49:32Z</time>
      </trkpt>
      <trkpt lat="43.09785" lon="3.0013">
        <ele>-2.037</ele>
        <time>2010-10-29T12:49:44Z</time>
      </trkpt>
      <trkpt lat="43.09737" lon="3.00128">
        <ele>-1.352</ele>
        <time>2010-10-29T12:49:49Z</time>
      </trkpt>
      <trkpt lat="43.0963" lon="3.00142">
        <ele>-1.973</ele>
        <time>2010-10-29T12:50:01Z</time>
      </trkpt>
      <trkpt lat="43.09573" lon="3.00145">
        <ele>-2.511</ele>
        <time>2010-10-29T12:50:07Z</time>
      </trkpt>
      <trkpt lat="43.09537" lon="3.0015">
        <ele>-2.048</ele>
        <time>2010-10-29T12:50:11Z</time>
      </trkpt>
      <trkpt lat="43.09452" lon="3.00156">
        <ele>-1.288</ele>
        <time>2010-10-29T12:50:21Z</time>
      </trkpt>
      <trkpt lat="43.09374" lon="3.0016">
        <ele>-1.604</ele>
        <time>2010-10-29T12:50:30Z</time>
      </trkpt>
      <trkpt lat="43.09241" lon="3.00176">
        <ele>-0.711</ele>
        <time>2010-10-29T12:50:45Z</time>
      </trkpt>
      <trkpt lat="43.09208" lon="3.00185">
        <ele>0.074</ele>
        <time>2010-10-29T12:50:49Z</time>
      </trkpt>
      <trkpt lat="43.09173" lon="3.00186">
        <ele>-0.22</ele>
        <time>2010-10-29T12:50:53Z</time>
      </trkpt>
      <trkpt lat="43.09094" lon="3.00171">
        <ele>-0.734</ele>
        <time>2010-10-29T12:51:02Z</time>
      </trkpt>
      <trkpt lat="43.09068" lon="3.0018">
        <ele>-1.791</ele>
        <time>2010-10-29T12:51:09Z</time>
      </trkpt>
      <trkpt lat="43.0907" lon="3.00181">
        <ele>-3.341</ele>
        <time>2010-10-29T12:51:12Z</time>
      </trkpt>
      <trkpt lat="43.09094" lon="3.00189">
        <ele>-6.174</ele>
        <time>2010-10-29T12:51:22Z</time>
      </trkpt>
      <trkpt lat="43.09112" lon="3.00193">
        <ele>-7.505</ele>
        <time>2010-10-29T12:51:27Z</time>
      </trkpt>
      <trkpt lat="43.0913" lon="3.00198">
        <ele>-7.375</ele>
        <time>2010-10-29T12:51:30Z</time>
      </trkpt>
      <trkpt lat="43.09211" lon="3.00237">
        <ele>-8.864</ele>
        <time>2010-10-29T12:51:40Z</time>
      </trkpt>
      <trkpt lat="43.09315" lon="3.0031">
        <ele>-10.075</ele>
        <time>2010-10-29T12:51:54Z</time>
      </trkpt>
      <trkpt lat="43.09322" lon="3.00315">
        <ele>-9.941</ele>
        <time>2010-10-29T12:51:55Z</time>
      </trkpt>
      <trkpt lat="43.09418" lon="3.0036">
        <ele>-10.636</ele>
        <time>2010-10-29T12:52:07Z</time>
      </trkpt>
      <trkpt lat="43.0955" lon="3.00429">
        <ele>-10.916</ele>
        <time>2010-10-29T12:52:22Z</time>
      </trkpt>
      <trkpt lat="43.09573" lon="3.00447">
        <ele>-10.599</ele>
        <time>2010-10-29T12:52:25Z</time>
      </trkpt>
      <trkpt lat="43.09697" lon="3.00517">
        <ele>-10.413</ele>
        <time>2010-10-29T12:52:40Z</time>
      </trkpt>
      <trkpt lat="43.09716" lon="3.00525">
        <ele>-10.413</ele>
        <time>2010-10-29T12:52:42Z</time>
      </trkpt>
      <trkpt lat="43.09779" lon="3.00561">
        <ele>-10.093</ele>
        <time>2010-10-29T12:52:50Z</time>
      </trkpt>
      <trkpt lat="43.09807" lon="3.00567">
        <ele>-9.904</ele>
        <time>2010-10-29T12:52:53Z</time>
      </trkpt>
      <trkpt lat="43.09943" lon="3.0064">
        <ele>-9.84</ele>
        <time>2010-10-29T12:53:08Z</time>
      </trkpt>
      <trkpt lat="43.09985" lon="3.00666">
        <ele>-9.868</ele>
        <time>2010-10-29T12:53:13Z</time>
      </trkpt>
      <trkpt lat="43.10011" lon="3.0068">
        <ele>-9.875</ele>
        <time>2010-10-29T12:53:16Z</time>
      </trkpt>
      <trkpt lat="43.10105" lon="3.00748">
        <ele>-8.884</ele>
        <time>2010-10-29T12:53:28Z</time>
      </trkpt>
      <trkpt lat="43.10166" lon="3.00789">
        <ele>-8.61</ele>
        <time>2010-10-29T12:53:36Z</time>
      </trkpt>
      <trkpt lat="43.10269" lon="3.00859">
        <ele>-9.481</ele>
        <time>2010-10-29T12:53:50Z</time>
      </trkpt>
      <trkpt lat="43.10302" lon="3.00874">
        <ele>-8.968</ele>
        <time>2010-10-29T12:53:54Z</time>
      </trkpt>
      <trkpt lat="43.10395" lon="3.0095">
        <ele>-8.859</ele>
        <time>2010-10-29T12:54:06Z</time>
      </trkpt>
      <trkpt lat="43.1049" lon="3.01026">
        <ele>-10.028</ele>
        <time>2010-10-29T12:54:19Z</time>
      </trkpt>
      <trkpt lat="43.10568" lon="3.01066">
        <ele>-10.342</ele>
        <time>2010-10-29T12:54:29Z</time>
      </trkpt>
      <trkpt lat="43.10625" lon="3.01107">
        <ele>-9.335</ele>
        <time>2010-10-29T12:54:37Z</time>
      </trkpt>
      <trkpt lat="43.10649" lon="3.01093">
        <ele>-9.718</ele>
        <time>2010-10-29T12:54:42Z</time>
      </trkpt>
      <trkpt lat="43.10645" lon="3.01089">
        <ele>-9.277</ele>
        <time>2010-10-29T12:54:46Z</time>
      </trkpt>
      <trkpt lat="43.10638" lon="3.01088">
        <ele>-8.833</ele>
        <time>2010-10-29T12:54:49Z</time>
      </trkpt>
      <trkpt lat="43.10597" lon="3.01078">
        <ele>-8.76</ele>
        <time>2010-10-29T12:54:56Z</time>
      </trkpt>
      <trkpt lat="43.1047" lon="3.01072">
        <ele>-10.035</ele>
        <time>2010-10-29T12:55:11Z</time>
      </trkpt>
      <trkpt lat="43.10331" lon="3.01077">
        <ele>-11.194</ele>
        <time>2010-10-29T12:55:27Z</time>
      </trkpt>
      <trkpt lat="43.10313" lon="3.01076">
        <ele>-11.625</ele>
        <time>2010-10-29T12:55:29Z</time>
      </trkpt>
      <trkpt lat="43.10192" lon="3.01075">
        <ele>-12.989</ele>
        <time>2010-10-29T12:55:43Z</time>
      </trkpt>
      <trkpt lat="43.10067" lon="3.01084">
        <ele>-11.304</ele>
        <time>2010-10-29T12:55:56Z</time>
      </trkpt>
      <trkpt lat="43.09947" lon="3.01097">
        <ele>-11.364</ele>
        <time>2010-10-29T12:56:09Z</time>
      </trkpt>
      <trkpt lat="43.0981" lon="3.01121">
        <ele>-9.665</ele>
        <time>2010-10-29T12:56:23Z</time>
      </trkpt>
      <trkpt lat="43.09731" lon="3.01131">
        <ele>-10.224</ele>
        <time>2010-10-29T12:56:32Z</time>
      </trkpt>
      <trkpt lat="43.09674" lon="3.01135">
        <ele>-11.107</ele>
        <time>2010-10-29T12:56:39Z</time>
      </trkpt>
      <trkpt lat="43.09567" lon="3.01149">
        <ele>-13.776</ele>
        <time>2010-10-29T12:56:52Z</time>
      </trkpt>
      <trkpt lat="43.09455" lon="3.01161">
        <ele>-14.654</ele>
        <time>2010-10-29T12:57:05Z</time>
      </trkpt>
      <trkpt lat="43.0939" lon="3.01176">
        <ele>-15.379</ele>
        <time>2010-10-29T12:57:13Z</time>
      </trkpt>
      <trkpt lat="43.09281" lon="3.01185">
        <ele>-15.466</ele>
        <time>2010-10-29T12:57:25Z</time>
      </trkpt>
      <trkpt lat="43.09244" lon="3.01195">
        <ele>-15.404</ele>
        <time>2010-10-29T12:57:29Z</time>
      </trkpt>
      <trkpt lat="43.09125" lon="3.01209">
        <ele>-14.764</ele>
        <time>2010-10-29T12:57:42Z</time>
      </trkpt>
      <trkpt lat="43.09078" lon="3.01218">
        <ele>-14.878</ele>
        <time>2010-10-29T12:57:47Z</time>
      </trkpt>
      <trkpt lat="43.08977" lon="3.01225">
        <ele>-14.193</ele>
        <time>2010-10-29T12:57:57Z</time>
      </trkpt>
      <trkpt lat="43.08947" lon="3.01225">
        <ele>-14.013</ele>
        <time>2010-10-29T12:58:00Z</time>
      </trkpt>
      <trkpt lat="43.08813" lon="3.01247">
        <ele>-14.653</ele>
        <time>2010-10-29T12:58:15Z</time>
      </trkpt>
      <trkpt lat="43.08713" lon="3.0126">
        <ele>-15.458</ele>
        <time>2010-10-29T12:58:26Z</time>
      </trkpt>
      <trkpt lat="43.0857" lon="3.01282">
        <ele>-16.24</ele>
        <time>2010-10-29T12:58:42Z</time>
      </trkpt>
      <trkpt lat="43.08446" lon="3.01303">
        <ele>-16.601</ele>
        <time>2010-10-29T12:58:56Z</time>
      </trkpt>
      <trkpt lat="43.08337" lon="3.01326">
        <ele>-17.383</ele>
        <time>2010-10-29T12:59:08Z</time>
      </trkpt>
      <trkpt lat="43.08221" lon="3.01347">
        <ele>-17.573</ele>
        <time>2010-10-29T12:59:21Z</time>
      </trkpt>
      <trkpt lat="43.08153" lon="3.0136">
        <ele>-18.155</ele>
        <time>2010-10-29T12:59:29Z</time>
      </trkpt>
      <trkpt lat="43.08118" lon="3.01363">
        <ele>-17.421</ele>
        <time>2010-10-29T12:59:33Z</time>
      </trkpt>
      <trkpt lat="43.08084" lon="3.01371">
        <ele>-16.55</ele>
        <time>2010-10-29T12:59:37Z</time>
      </trkpt>
      <trkpt lat="43.07964" lon="3.01403">
        <ele>-15.742</ele>
        <time>2010-10-29T12:59:51Z</time>
      </trkpt>
      <trkpt lat="43.07946" lon="3.0141">
        <ele>-14.973</ele>
        <time>2010-10-29T12:59:53Z</time>
      </trkpt>
      <trkpt lat="43.07923" lon="3.01426">
        <ele>-12.803</ele>
        <time>2010-10-29T12:59:59Z</time>
      </trkpt>
      <trkpt lat="43.07926" lon="3.01427">
        <ele>-12.641</ele>
        <time>2010-10-29T13:00:14Z</time>
      </trkpt>
      <trkpt lat="43.07925" lon="3.01431">
        <ele>-12.896</ele>
        <time>2010-10-29T13:00:28Z</time>
      </trkpt>
      <trkpt lat="43.07928" lon="3.01433">
        <ele>-13.991</ele>
        <time>2010-10-29T13:00:59Z</time>
      </trkpt>
      <trkpt lat="43.07931" lon="3.01433">
        <ele>-14.454</ele>
        <time>2010-10-29T13:01:18Z</time>
      </trkpt>
      <trkpt lat="43.07951" lon="3.01426">
        <ele>-12.642</ele>
        <time>2010-10-29T13:01:24Z</time>
      </trkpt>
      <trkpt lat="43.08037" lon="3.01437">
        <ele>-10.827</ele>
        <time>2010-10-29T13:01:34Z</time>
      </trkpt>
      <trkpt lat="43.08159" lon="3.01471">
        <ele>-10.009</ele>
        <time>2010-10-29T13:01:46Z</time>
      </trkpt>
      <trkpt lat="43.0819" lon="3.01481">
        <ele>-9.662</ele>
        <time>2010-10-29T13:01:49Z</time>
      </trkpt>
      <trkpt lat="43.08219" lon="3.01495">
        <ele>-10.314</ele>
        <time>2010-10-29T13:01:52Z</time>
      </trkpt>
      <trkpt lat="43.08324" lon="3.01549">
        <ele>-11.566</ele>
        <time>2010-10-29T13:02:04Z</time>
      </trkpt>
      <trkpt lat="43.08462" lon="3.01616">
        <ele>-10.806</ele>
        <time>2010-10-29T13:02:19Z</time>
      </trkpt>
      <trkpt lat="43.08472" lon="3.01619">
        <ele>-10.931</ele>
        <time>2010-10-29T13:02:20Z</time>
      </trkpt>
      <trkpt lat="43.08579" lon="3.01663">
        <ele>-10.291</ele>
        <time>2010-10-29T13:02:31Z</time>
      </trkpt>
      <trkpt lat="43.08677" lon="3.01707">
        <ele>-10.432</ele>
        <time>2010-10-29T13:02:41Z</time>
      </trkpt>
      <trkpt lat="43.08698" lon="3.01714">
        <ele>-10.954</ele>
        <time>2010-10-29T13:02:43Z</time>
      </trkpt>
      <trkpt lat="43.08773" lon="3.01738">
        <ele>-10.492</ele>
        <time>2010-10-29T13:02:50Z</time>
      </trkpt>
      <trkpt lat="43.0891" lon="3.0176">
        <ele>-9.294</ele>
        <time>2010-10-29T13:03:02Z</time>
      </trkpt>
      <trkpt lat="43.09023" lon="3.01789">
        <ele>-9.214</ele>
        <time>2010-10-29T13:03:12Z</time>
      </trkpt>
      <trkpt lat="43.09047" lon="3.0179">
        <ele>-9.355</ele>
        <time>2010-10-29T13:03:14Z</time>
      </trkpt>
      <trkpt lat="43.09204" lon="3.01815">
        <ele>-8.46</ele>
        <time>2010-10-29T13:03:27Z</time>
      </trkpt>
      <trkpt lat="43.09311" lon="3.0183">
        <ele>-7.999</ele>
        <time>2010-10-29T13:03:36Z</time>
      </trkpt>
      <trkpt lat="43.09454" lon="3.01845">
        <ele>-7.667</ele>
        <time>2010-10-29T13:03:48Z</time>
      </trkpt>
      <trkpt lat="43.09582" lon="3.01856">
        <ele>-7.617</ele>
        <time>2010-10-29T13:03:59Z</time>
      </trkpt>
      <trkpt lat="43.09593" lon="3.01857">
        <ele>-7.291</ele>
        <time>2010-10-29T13:04:00Z</time>
      </trkpt>
      <trkpt lat="43.09626" lon="3.01857">
        <ele>-7.416</ele>
        <time>2010-10-29T13:04:03Z</time>
      </trkpt>
      <trkpt lat="43.09762" lon="3.0184">
        <ele>-8.18</ele>
        <time>2010-10-29T13:04:15Z</time>
      </trkpt>
      <trkpt lat="43.09779" lon="3.01808">
        <ele>-9.168</ele>
        <time>2010-10-29T13:04:20Z</time>
      </trkpt>
      <trkpt lat="43.09748" lon="3.01792">
        <ele>-10.051</ele>
        <time>2010-10-29T13:04:25Z</time>
      </trkpt>
      <trkpt lat="43.09627" lon="3.01778">
        <ele>-11.771</ele>
        <time>2010-10-29T13:04:37Z</time>
      </trkpt>
      <trkpt lat="43.09501" lon="3.01765">
        <ele>-10.872</ele>
        <time>2010-10-29T13:04:49Z</time>
      </trkpt>
      <trkpt lat="43.09367" lon="3.01758">
        <ele>-11.27</ele>
        <time>2010-10-29T13:05:02Z</time>
      </trkpt>
      <trkpt lat="43.09283" lon="3.01748">
        <ele>-12.976</ele>
        <time>2010-10-29T13:05:10Z</time>
      </trkpt>
      <trkpt lat="43.09166" lon="3.01738">
        <ele>-14.479</ele>
        <time>2010-10-29T13:05:22Z</time>
      </trkpt>
      <trkpt lat="43.09048" lon="3.01729">
        <ele>-15.036</ele>
        <time>2010-10-29T13:05:34Z</time>
      </trkpt>
      <trkpt lat="43.08923" lon="3.01711">
        <ele>-14.583</ele>
        <time>2010-10-29T13:05:46Z</time>
      </trkpt>
      <trkpt lat="43.08817" lon="3.01669">
        <ele>-15.358</ele>
        <time>2010-10-29T13:05:56Z</time>
      </trkpt>
      <trkpt lat="43.08682" lon="3.01642">
        <ele>-14.433</ele>
        <time>2010-10-29T13:06:09Z</time>
      </trkpt>
      <trkpt lat="43.08584" lon="3.01601">
        <ele>-15.109</ele>
        <time>2010-10-29T13:06:18Z</time>
      </trkpt>
      <trkpt lat="43.08417" lon="3.01549">
        <ele>-15.645</ele>
        <time>2010-10-29T13:06:33Z</time>
      </trkpt>
      <trkpt lat="43.08271" lon="3.01504">
        <ele>-12.743</ele>
        <time>2010-10-29T13:06:46Z</time>
      </trkpt>
      <trkpt lat="43.08115" lon="3.01452">
        <ele>-10.274</ele>
        <time>2010-10-29T13:07:00Z</time>
      </trkpt>
      <trkpt lat="43.07977" lon="3.01378">
        <ele>-9.009</ele>
        <time>2010-10-29T13:07:13Z</time>
      </trkpt>
      <trkpt lat="43.07824" lon="3.01311">
        <ele>-7.17</ele>
        <time>2010-10-29T13:07:27Z</time>
      </trkpt>
      <trkpt lat="43.07673" lon="3.01241">
        <ele>-6.75</ele>
        <time>2010-10-29T13:07:41Z</time>
      </trkpt>
      <trkpt lat="43.07559" lon="3.01183">
        <ele>-5.841</ele>
        <time>2010-10-29T13:07:52Z</time>
      </trkpt>
      <trkpt lat="43.07408" lon="3.01097">
        <ele>-5.427</ele>
        <time>2010-10-29T13:08:07Z</time>
      </trkpt>
      <trkpt lat="43.073" lon="3.01051">
        <ele>-5.377</ele>
        <time>2010-10-29T13:08:18Z</time>
      </trkpt>
      <trkpt lat="43.07171" lon="3.0099">
        <ele>-5.163</ele>
        <time>2010-10-29T13:08:32Z</time>
      </trkpt>
      <trkpt lat="43.0704" lon="3.00921">
        <ele>-5.586</ele>
        <time>2010-10-29T13:08:45Z</time>
      </trkpt>
      <trkpt lat="43.06923" lon="3.00873">
        <ele>-5.341</ele>
        <time>2010-10-29T13:08:57Z</time>
      </trkpt>
      <trkpt lat="43.06865" lon="3.00841">
        <ele>-5.272</ele>
        <time>2010-10-29T13:09:03Z</time>
      </trkpt>
      <trkpt lat="43.0683" lon="3.00832">
        <ele>-5.117</ele>
        <time>2010-10-29T13:09:07Z</time>
      </trkpt>
      <trkpt lat="43.06816" lon="3.00833">
        <ele>-4.923</ele>
        <time>2010-10-29T13:09:09Z</time>
      </trkpt>
      <trkpt lat="43.06799" lon="3.00822">
        <ele>-5.582</ele>
        <time>2010-10-29T13:09:13Z</time>
      </trkpt>
      <trkpt lat="43.06795" lon="3.0082">
        <ele>-6.368</ele>
        <time>2010-10-29T13:09:28Z</time>
      </trkpt>
      <trkpt lat="43.06795" lon="3.00821">
        <ele>-5.78</ele>
        <time>2010-10-29T13:09:49Z</time>
      </trkpt>
      <trkpt lat="43.06798" lon="3.00823">
        <ele>-5.515</ele>
        <time>2010-10-29T13:13:22Z</time>
      </trkpt>
      <trkpt lat="43.06804" lon="3.00825">
        <ele>-5.564</ele>
        <time>2010-10-29T13:13:31Z</time>
      </trkpt>
      <trkpt lat="43.06824" lon="3.00824">
        <ele>-3.946</ele>
        <time>2010-10-29T13:13:38Z</time>
      </trkpt>
      <trkpt lat="43.0684" lon="3.00823">
        <ele>-3.083</ele>
        <time>2010-10-29T13:13:41Z</time>
      </trkpt>
      <trkpt lat="43.06861" lon="3.00826">
        <ele>-2.856</ele>
        <time>2010-10-29T13:13:44Z</time>
      </trkpt>
      <trkpt lat="43.06927" lon="3.00844">
        <ele>-1.214</ele>
        <time>2010-10-29T13:13:52Z</time>
      </trkpt>
      <trkpt lat="43.07038" lon="3.00874">
        <ele>-0.465</ele>
        <time>2010-10-29T13:14:03Z</time>
      </trkpt>
      <trkpt lat="43.07144" lon="3.00897">
        <ele>0.006</ele>
        <time>2010-10-29T13:14:12Z</time>
      </trkpt>
      <trkpt lat="43.07275" lon="3.00942">
        <ele>-0.093</ele>
        <time>2010-10-29T13:14:24Z</time>
      </trkpt>
      <trkpt lat="43.07432" lon="3.0099">
        <ele>0.885</ele>
        <time>2010-10-29T13:14:39Z</time>
      </trkpt>
      <trkpt lat="43.07619" lon="3.01038">
        <ele>0.527</ele>
        <time>2010-10-29T13:14:56Z</time>
      </trkpt>
      <trkpt lat="43.0764" lon="3.01044">
        <ele>0.78</ele>
        <time>2010-10-29T13:14:58Z</time>
      </trkpt>
      <trkpt lat="43.07814" lon="3.01115">
        <ele>1.286</ele>
        <time>2010-10-29T13:15:16Z</time>
      </trkpt>
      <trkpt lat="43.07925" lon="3.01171">
        <ele>1.814</ele>
        <time>2010-10-29T13:15:28Z</time>
      </trkpt>
      <trkpt lat="43.08041" lon="3.01216">
        <ele>2.181</ele>
        <time>2010-10-29T13:15:40Z</time>
      </trkpt>
      <trkpt lat="43.08165" lon="3.01276">
        <ele>2.309</ele>
        <time>2010-10-29T13:15:53Z</time>
      </trkpt>
      <trkpt lat="43.08256" lon="3.01323">
        <ele>2.645</ele>
        <time>2010-10-29T13:16:03Z</time>
      </trkpt>
      <trkpt lat="43.08362" lon="3.01375">
        <ele>2.694</ele>
        <time>2010-10-29T13:16:15Z</time>
      </trkpt>
      <trkpt lat="43.08476" lon="3.01435">
        <ele>3.316</ele>
        <time>2010-10-29T13:16:28Z</time>
      </trkpt>
      <trkpt lat="43.08593" lon="3.01483">
        <ele>3.62</ele>
        <time>2010-10-29T13:16:40Z</time>
      </trkpt>
      <trkpt lat="43.0872" lon="3.01543">
        <ele>3.748</ele>
        <time>2010-10-29T13:16:53Z</time>
      </trkpt>
      <trkpt lat="43.08848" lon="3.01581">
        <ele>3.879</ele>
        <time>2010-10-29T13:17:05Z</time>
      </trkpt>
      <trkpt lat="43.0898" lon="3.01624">
        <ele>3.649</ele>
        <time>2010-10-29T13:17:18Z</time>
      </trkpt>
      <trkpt lat="43.091" lon="3.01665">
        <ele>2.89</ele>
        <time>2010-10-29T13:17:29Z</time>
      </trkpt>
      <trkpt lat="43.09278" lon="3.01734">
        <ele>2.328</ele>
        <time>2010-10-29T13:17:46Z</time>
      </trkpt>
      <trkpt lat="43.0935" lon="3.01758">
        <ele>2.68</ele>
        <time>2010-10-29T13:17:53Z</time>
      </trkpt>
      <trkpt lat="43.09498" lon="3.018">
        <ele>3.027</ele>
        <time>2010-10-29T13:18:06Z</time>
      </trkpt>
      <trkpt lat="43.09555" lon="3.01812">
        <ele>2.929</ele>
        <time>2010-10-29T13:18:11Z</time>
      </trkpt>
      <trkpt lat="43.09589" lon="3.01815">
        <ele>2.801</ele>
        <time>2010-10-29T13:18:14Z</time>
      </trkpt>
      <trkpt lat="43.09722" lon="3.01844">
        <ele>2.834</ele>
        <time>2010-10-29T13:18:26Z</time>
      </trkpt>
      <trkpt lat="43.09745" lon="3.0184">
        <ele>3.123</ele>
        <time>2010-10-29T13:18:28Z</time>
      </trkpt>
      <trkpt lat="43.09776" lon="3.01806">
        <ele>3.596</ele>
        <time>2010-10-29T13:18:34Z</time>
      </trkpt>
      <trkpt lat="43.0977" lon="3.01804">
        <ele>3.106</ele>
        <time>2010-10-29T13:18:37Z</time>
      </trkpt>
      <trkpt lat="43.09764" lon="3.01801">
        <ele>2.586</ele>
        <time>2010-10-29T13:18:39Z</time>
      </trkpt>
      <trkpt lat="43.09749" lon="3.01789">
        <ele>3.558</ele>
        <time>2010-10-29T13:18:42Z</time>
      </trkpt>
      <trkpt lat="43.0966" lon="3.01776">
        <ele>1.814</ele>
        <time>2010-10-29T13:18:52Z</time>
      </trkpt>
      <trkpt lat="43.09516" lon="3.01784">
        <ele>0.369</ele>
        <time>2010-10-29T13:19:07Z</time>
      </trkpt>
      <trkpt lat="43.09386" lon="3.01797">
        <ele>-0.886</ele>
        <time>2010-10-29T13:19:20Z</time>
      </trkpt>
      <trkpt lat="43.09316" lon="3.01804">
        <ele>-1.036</ele>
        <time>2010-10-29T13:19:27Z</time>
      </trkpt>
      <trkpt lat="43.09286" lon="3.01809">
        <ele>-0.861</ele>
        <time>2010-10-29T13:19:30Z</time>
      </trkpt>
      <trkpt lat="43.09151" lon="3.01817">
        <ele>-0.647</ele>
        <time>2010-10-29T13:19:44Z</time>
      </trkpt>
      <trkpt lat="43.09024" lon="3.01791">
        <ele>-1.561</ele>
        <time>2010-10-29T13:19:56Z</time>
      </trkpt>
      <trkpt lat="43.08956" lon="3.01767">
        <ele>-1.942</ele>
        <time>2010-10-29T13:20:02Z</time>
      </trkpt>
      <trkpt lat="43.0886" lon="3.01742">
        <ele>-2.006</ele>
        <time>2010-10-29T13:20:11Z</time>
      </trkpt>
      <trkpt lat="43.08776" lon="3.01693">
        <ele>-2.26</ele>
        <time>2010-10-29T13:20:19Z</time>
      </trkpt>
      <trkpt lat="43.08671" lon="3.01683">
        <ele>-2.042</ele>
        <time>2010-10-29T13:20:29Z</time>
      </trkpt>
      <trkpt lat="43.08631" lon="3.01681">
        <ele>-2.108</ele>
        <time>2010-10-29T13:20:33Z</time>
      </trkpt>
      <trkpt lat="43.08566" lon="3.01661">
        <ele>-2.428</ele>
        <time>2010-10-29T13:20:39Z</time>
      </trkpt>
      <trkpt lat="43.08462" lon="3.01675">
        <ele>-3.085</ele>
        <time>2010-10-29T13:20:50Z</time>
      </trkpt>
      <trkpt lat="43.08353" lon="3.01638">
        <ele>-2.809</ele>
        <time>2010-10-29T13:21:01Z</time>
      </trkpt>
      <trkpt lat="43.08312" lon="3.01621">
        <ele>-3.11</ele>
        <time>2010-10-29T13:21:05Z</time>
      </trkpt>
      <trkpt lat="43.08197" lon="3.01565">
        <ele>-3.804</ele>
        <time>2010-10-29T13:21:16Z</time>
      </trkpt>
      <trkpt lat="43.08058" lon="3.0148">
        <ele>-4.53</ele>
        <time>2010-10-29T13:21:30Z</time>
      </trkpt>
      <trkpt lat="43.07919" lon="3.01387">
        <ele>-4.626</ele>
        <time>2010-10-29T13:21:44Z</time>
      </trkpt>
      <trkpt lat="43.07835" lon="3.01296">
        <ele>-4.21</ele>
        <time>2010-10-29T13:21:53Z</time>
      </trkpt>
      <trkpt lat="43.0774" lon="3.01174">
        <ele>-3.184</ele>
        <time>2010-10-29T13:22:05Z</time>
      </trkpt>
      <trkpt lat="43.07707" lon="3.01141">
        <ele>-3.309</ele>
        <time>2010-10-29T13:22:09Z</time>
      </trkpt>
      <trkpt lat="43.07582" lon="3.01085">
        <ele>-3.722</ele>
        <time>2010-10-29T13:22:22Z</time>
      </trkpt>
      <trkpt lat="43.0744" lon="3.01035">
        <ele>-3.357</ele>
        <time>2010-10-29T13:22:36Z</time>
      </trkpt>
      <trkpt lat="43.07336" lon="3.01001">
        <ele>-3.214</ele>
        <time>2010-10-29T13:22:47Z</time>
      </trkpt>
      <trkpt lat="43.07326" lon="3.00997">
        <ele>-3.387</ele>
        <time>2010-10-29T13:22:48Z</time>
      </trkpt>
      <trkpt lat="43.07215" lon="3.00931">
        <ele>-3.61</ele>
        <time>2010-10-29T13:22:59Z</time>
      </trkpt>
      <trkpt lat="43.07113" lon="3.00929">
        <ele>-3.999</ele>
        <time>2010-10-29T13:23:09Z</time>
      </trkpt>
      <trkpt lat="43.06995" lon="3.00897">
        <ele>-3.581</ele>
        <time>2010-10-29T13:23:21Z</time>
      </trkpt>
      <trkpt lat="43.06919" lon="3.00852">
        <ele>-3.363</ele>
        <time>2010-10-29T13:23:29Z</time>
      </trkpt>
      <trkpt lat="43.06874" lon="3.00835">
        <ele>-3.369</ele>
        <time>2010-10-29T13:23:34Z</time>
      </trkpt>
      <trkpt lat="43.06817" lon="3.00809">
        <ele>-3.825</ele>
        <time>2010-10-29T13:23:43Z</time>
      </trkpt>
      <trkpt lat="43.06801" lon="3.00806">
        <ele>-2.677</ele>
        <time>2010-10-29T13:23:52Z</time>
      </trkpt>
      <trkpt lat="43.068" lon="3.00808">
        <ele>-1.777</ele>
        <time>2010-10-29T13:24:16Z</time>
      </trkpt>
      <trkpt lat="43.06799" lon="3.00808">
        <ele>-2.397</ele>
        <time>2010-10-29T13:24:40Z</time>
      </trkpt>
      <trkpt lat="43.068" lon="3.00808">
        <ele>-1.522</ele>
        <time>2010-10-29T13:26:15Z</time>
      </trkpt>
      <trkpt lat="43.06801" lon="3.0081">
        <ele>-1.488</ele>
        <time>2010-10-29T13:26:35Z</time>
      </trkpt>
      <trkpt lat="43.06806" lon="3.00812">
        <ele>-1.969</ele>
        <time>2010-10-29T13:26:51Z</time>
      </trkpt>
      <trkpt lat="43.06808" lon="3.00813">
        <ele>-3.028</ele>
        <time>2010-10-29T13:27:23Z</time>
      </trkpt>
      <trkpt lat="43.06811" lon="3.0081">
        <ele>-4.018</ele>
        <time>2010-10-29T13:27:40Z</time>
      </trkpt>
      <trkpt lat="43.06812" lon="3.0081">
        <ele>-4.178</ele>
        <time>2010-10-29T13:27:43Z</time>
      </trkpt>
      <trkpt lat="43.06824" lon="3.00813">
        <ele>-3.233</ele>
        <time>2010-10-29T13:27:49Z</time>
      </trkpt>
      <trkpt lat="43.06853" lon="3.00814">
        <ele>-1.504</ele>
        <time>2010-10-29T13:27:55Z</time>
      </trkpt>
      <trkpt lat="43.06928" lon="3.00837">
        <ele>-0.562</ele>
        <time>2010-10-29T13:28:04Z</time>
      </trkpt>
      <trkpt lat="43.07055" lon="3.00886">
        <ele>0.687</ele>
        <time>2010-10-29T13:28:16Z</time>
      </trkpt>
      <trkpt lat="43.07067" lon="3.00889">
        <ele>0.697</ele>
        <time>2010-10-29T13:28:17Z</time>
      </trkpt>
      <trkpt lat="43.07233" lon="3.00971">
        <ele>1.736</ele>
        <time>2010-10-29T13:28:32Z</time>
      </trkpt>
      <trkpt lat="43.07381" lon="3.01049">
        <ele>2.952</ele>
        <time>2010-10-29T13:28:46Z</time>
      </trkpt>
      <trkpt lat="43.07517" lon="3.01099">
        <ele>3.77</ele>
        <time>2010-10-29T13:28:58Z</time>
      </trkpt>
      <trkpt lat="43.07528" lon="3.01102">
        <ele>3.983</ele>
        <time>2010-10-29T13:28:59Z</time>
      </trkpt>
      <trkpt lat="43.07661" lon="3.01162">
        <ele>4.269</ele>
        <time>2010-10-29T13:29:11Z</time>
      </trkpt>
    </trkseg>
  </trk>
  <trk>
    <name><![CDATA[ACTIVE LOG180319]]></name>
    <trkseg>
      <trkpt lat="43.14309" lon="3.00078">
        <ele>37.967</ele>
        <time>2010-10-29T16:03:19Z</time>
      </trkpt>
      <trkpt lat="43.14299" lon="3.00064">
        <ele>18.104</ele>
        <time>2010-10-29T16:04:06Z</time>
      </trkpt>
    </trkseg>
  </trk>
</gpx>